Agoura, CA

6:46 AM PST on January 26, 2015 (GMT -0800)
Camarillo | Change Station
CLOSE
Current Station
Airport
Location: Camarillo,
Elevation: 75 ft
Nearby Weather Stations

Elev 75 ft 34.21 °N, 119.09 °W | Updated 51 minutes ago

Mostly Cloudy
Mostly Cloudy
63 °F
Feels Like 63 °F
N
10
Wind Variable Wind from ENE

Today
High -- | Low -- °F
--% Chance of Precip.
Yesterday
High -- | Low -- °F
Precip. -- in
6:56 AM 5:19 PM
Waxing Crescent, 44% visible
Pressure 29.98 in
Visibility 10.0 miles
Clouds Scattered Clouds 12000 ft
Dew Point 39 °F
Humidity 41%
Rainfall 0.00 in
Snow Depth Not available.
UV 0 out of 12
Pollen 7.60 out of 12
Air Quality Not available.
Flu Activity Not available.
METAR KCMA 261355Z AUTO 07009KT 10SM SCT120 17/04 A2995 RMK AO2 SLP151 T01720039

More Conditions Fewer Conditions

Pressure 29.98 in
Visibility 10.0 miles
Clouds Scattered Clouds 12000 ft
Dew Point 39 °F
Humidity 41%
Rainfall 0.00 in
Snow Depth Not available.
UV 0 out of 12
Pollen 7.60 out of 12
Air Quality Not available.
Flu Activity Not available.
METAR KCMA 261355Z AUTO 07009KT 10SM SCT120 17/04 A2995 RMK AO2 SLP151 T01720039

More Conditions Fewer Conditions

10-Day Weather Forecast

Almanac

Astronomy

Jan. 26, 2015 Rise Set
Actual Time
Civil Twilight
Nautical Twilight
Astronomical Twilight
Moon
Length of Visible Light
Length of Day
Tomorrow will be .
, % of the Moon is Illuminated

Today's Extremes

State Highs State Lows

Community

WunderPhotos

Upload Photos

1,790,226 photos uploaded!

WunderBlogs® & News

Nearby

Air Quality

  Air Quality AQ Index Pollutant
Not available.

Snow Depth

Station Depth Elevation

Earthquake Activity

City Distance Mag. Time & Date
Minimum magnitude displayed is 2.5.

Coastal Water Temperatures

Place Temperature

Nearby Weather Stations